Terminal Aerodrome Forecast
Issued by NWS

Home | Current Version | Previous Version | Graphics & Text | Print | Product List | Glossary On
Versions: 1 2 3 4 5 6 7 8 9 10 11 12 13 14 15 16 17 18 19
683
FTUS43 KMPX 240520
TAFAXN
TAF
KAXN 240520Z 2406/2506 13004KT P6SM SKC
     FM241500 16010KT P6SM SKC
     FM242100 16014KT P6SM SCT250=

USA.gov is the U.S. government's official web portal to all federal, state and local government web resources and services.